createdAt,value
2022-12-08T00:03:28.557Z,98545.13
2022-12-08T00:09:40.161Z,98549.44
2022-12-08T00:15:42.094Z,98530.03
2022-12-08T00:21:43.971Z,98527.53
2022-12-08T00:27:49.014Z,98522.91
2022-12-08T00:33:50.892Z,98515.44
2022-12-08T00:40:02.587Z,98527.63
2022-12-08T00:46:04.900Z,98518.13
2022-12-08T00:52:13.228Z,98513.34
2022-12-08T00:58:15.161Z,98500.06
2022-12-08T01:04:25.732Z,98508.06
2022-12-08T01:10:27.595Z,98502.66
2022-12-08T01:16:33.224Z,98490.94
2022-12-08T01:22:36.151Z,98503.41
2022-12-08T01:28:46.430Z,98500.47
2022-12-08T01:34:48.362Z,98513.53
2022-12-08T01:40:50.458Z,98506.19
2022-12-08T01:46:55.873Z,98510.38
2022-12-08T01:53:10.841Z,98510.31
2022-12-08T01:59:12.993Z,98496.09
2022-12-08T02:05:16.564Z,98497.72
2022-12-08T02:11:18.819Z,98491.22
2022-12-08T02:18:02.974Z,98492.53
2022-12-08T02:24:36.937Z,98492.34
2022-12-08T02:30:54.601Z,98488.94
2022-12-08T02:37:34.082Z,98473.66
2022-12-08T02:43:44.208Z,98471.84
2022-12-08T02:49:46.754Z,98462.22
2022-12-08T02:56:10.191Z,98454.75
2022-12-08T03:02:24.172Z,98451.22
2022-12-08T03:08:57.246Z,98445.78
2022-12-08T03:15:06.976Z,98432.25
2022-12-08T03:21:10.545Z,98424.41
2022-12-08T03:27:20.956Z,98409.34
2022-12-08T03:33:41.207Z,98393.97
2022-12-08T03:39:47.350Z,98397.22
2022-12-08T03:45:49.220Z,98396.38
2022-12-08T03:51:51.264Z,98369.41
2022-12-08T03:57:53.117Z,98381.97
2022-12-08T04:04:04.373Z,98380.78
2022-12-08T04:10:07.480Z,98383.56
2022-12-08T04:16:23.906Z,98384.19
2022-12-08T04:22:25.890Z,98376.66
2022-12-08T04:28:31.400Z,98367.56
2022-12-08T04:34:33.903Z,98369.78
2022-12-08T04:40:35.793Z,98369.22
2022-12-08T04:46:43.186Z,98365.31
2022-12-08T04:52:50.586Z,98360.75
2022-12-08T04:58:52.843Z,98358.75
2022-12-08T05:04:54.731Z,98360.53
2022-12-08T05:11:14.323Z,98366.69
2022-12-08T05:17:18.298Z,98349.50
2022-12-08T05:23:20.194Z,98350.03
2022-12-08T05:29:22.083Z,98351.63
2022-12-08T05:35:23.972Z,98339.56
2022-12-08T05:41:25.955Z,98337.50
2022-12-08T05:47:30.733Z,98343.25
2022-12-08T05:59:52.274Z,98318.69
2022-12-08T06:05:54.158Z,98311.19
2022-12-08T06:11:56.042Z,98305.53
2022-12-08T06:17:59.982Z,98306.28
2022-12-08T06:24:01.882Z,98316.13
2022-12-08T06:30:04.971Z,98310.34
2022-12-08T06:36:07.650Z,98301.41
2022-12-08T06:42:28.373Z,98314.84
2022-12-08T06:48:30.320Z,98313.88
2022-12-08T06:54:32.224Z,98312.34
2022-12-08T07:00:34.191Z,98306.78
2022-12-08T07:06:36.095Z,98313.78
2022-12-08T07:12:38.067Z,98307.53
2022-12-08T07:18:40.046Z,98304.31
2022-12-08T07:24:42.059Z,98307.44
2022-12-08T07:30:44.023Z,98303.66
2022-12-08T07:36:45.949Z,98303.44
2022-12-08T07:42:50.618Z,98302.78
2022-12-08T07:48:55.016Z,98301.13
2022-12-08T07:54:56.880Z,98301.13
2022-12-08T08:00:58.875Z,98298.69
2022-12-08T08:07:00.849Z,98296.56
2022-12-08T08:13:03.087Z,98303.25
2022-12-08T08:19:04.991Z,98296.09
2022-12-08T08:25:07.322Z,98289.97
2022-12-08T08:31:09.364Z,98292.72
2022-12-08T08:37:11.444Z,98295.81
2022-12-08T08:43:32.916Z,98296.56
2022-12-08T08:49:38.135Z,98295.28
2022-12-08T08:55:40.238Z,98298.41
2022-12-08T09:01:42.250Z,98297.09
2022-12-08T09:07:44.263Z,98298.22
2022-12-08T09:13:55.438Z,98298.13
2022-12-08T09:19:57.373Z,98303.06
2022-12-08T09:26:06.538Z,98295.56
2022-12-08T09:32:08.418Z,98297.75
2022-12-08T09:38:10.316Z,98295.22
2022-12-08T09:45:09.903Z,98292.53
2022-12-08T09:51:25.378Z,98298.94
2022-12-08T09:57:27.879Z,98286.31
2022-12-08T10:03:34.356Z,98284.13
2022-12-08T10:10:07.622Z,98280.47
2022-12-08T10:16:26.545Z,98278.56
2022-12-08T10:22:39.834Z,98267.03
2022-12-08T10:28:45.832Z,98276.00
2022-12-08T10:35:14.434Z,98270.88
2022-12-08T10:41:18.225Z,98264.72
2022-12-08T10:47:23.233Z,98261.56
2022-12-08T10:53:32.161Z,98262.81
2022-12-08T10:59:34.566Z,98261.56
2022-12-08T11:05:36.878Z,98254.69
2022-12-08T11:11:51.379Z,98254.97
2022-12-08T11:18:24.076Z,98263.09
2022-12-08T11:24:32.273Z,98262.09
2022-12-08T11:30:51.059Z,98251.50
2022-12-08T11:36:55.257Z,98254.41
2022-12-08T11:43:11.352Z,98244.09
2022-12-08T11:49:14.551Z,98249.56
2022-12-08T11:55:38.794Z,98247.28
2022-12-08T12:01:42.849Z,98243.50
2022-12-08T12:08:35.091Z,98244.81
2022-12-08T12:15:16.773Z,98246.22
2022-12-08T12:21:26.126Z,98251.03
2022-12-08T12:27:40.533Z,98241.09
2022-12-08T12:33:46.188Z,98254.78
2022-12-08T12:40:01.009Z,98249.16
2022-12-08T12:46:27.696Z,98246.97
2022-12-08T12:52:32.308Z,98247.50
2022-12-08T12:58:37.135Z,98248.09
2022-12-08T13:04:39.187Z,98243.28
2022-12-08T13:11:09.910Z,98242.38
2022-12-08T13:17:16.279Z,98240.13
2022-12-08T13:23:43.008Z,98246.56
2022-12-08T13:29:53.584Z,98241.56
2022-12-08T13:36:25.930Z,98246.91
2022-12-08T13:43:15.180Z,98242.31
2022-12-08T14:02:48.003Z,98255.03
2022-12-08T14:09:10.827Z,98262.28
2022-12-08T14:15:15.678Z,98265.88
2022-12-08T14:21:21.806Z,98265.50
2022-12-08T14:27:37.179Z,98267.63
2022-12-08T14:33:40.558Z,98267.28
2022-12-08T14:39:42.705Z,98265.84
2022-12-08T14:45:44.535Z,98266.47
2022-12-08T14:51:49.531Z,98267.94
2022-12-08T14:57:51.536Z,98266.25
2022-12-08T15:03:55.601Z,98275.78
2022-12-08T15:10:33.302Z,98274.78
2022-12-08T15:16:44.399Z,98270.16
2022-12-08T15:22:46.400Z,98280.09
2022-12-08T15:28:48.294Z,98283.66
2022-12-08T15:34:50.520Z,98284.41
2022-12-08T15:40:53.886Z,98290.81
2022-12-08T15:46:56.433Z,98300.13
2022-12-08T15:53:01.677Z,98300.59
2022-12-08T15:59:03.561Z,98299.31
2022-12-08T16:12:08.386Z,98301.31
2022-12-08T16:18:24.895Z,98299.50
2022-12-08T16:24:26.866Z,98295.72
2022-12-08T16:30:31.429Z,98293.81
2022-12-08T16:36:33.635Z,98306.25
2022-12-08T16:42:45.862Z,98300.53
2022-12-08T16:48:47.834Z,98308.47
2022-12-08T16:54:49.800Z,98306.06
2022-12-08T17:00:51.784Z,98292.34
2022-12-08T17:06:53.788Z,98302.47
2022-12-08T17:12:56.531Z,98312.78
2022-12-08T17:18:58.843Z,98305.31
2022-12-08T17:25:02.514Z,98312.53
2022-12-08T17:31:10.583Z,98319.13
2022-12-08T17:37:12.865Z,98321.44
2022-12-08T17:43:15.567Z,98316.25
2022-12-08T17:49:22.113Z,98327.38
2022-12-08T17:55:24.005Z,98333.00
2022-12-08T18:01:27.891Z,98314.97
2022-12-08T18:07:30.061Z,98327.56
2022-12-08T18:13:34.980Z,98326.84
2022-12-08T18:19:37.005Z,98321.88
2022-12-08T18:25:38.909Z,98323.78
2022-12-08T18:37:56.749Z,98320.72
2022-12-08T18:43:58.711Z,98320.28
2022-12-08T18:50:00.726Z,98328.38
2022-12-08T18:56:03.959Z,98324.56
2022-12-08T19:02:06.185Z,98329.81
2022-12-08T19:08:31.711Z,98332.50
2022-12-08T19:14:37.190Z,98326.03
2022-12-08T19:20:39.155Z,98330.03
2022-12-08T19:26:41.279Z,98332.38
2022-12-08T19:32:43.270Z,98335.78
2022-12-08T19:39:04.140Z,98339.56
2022-12-08T19:45:21.462Z,98348.63
2022-12-08T19:51:23.511Z,98354.22
2022-12-08T19:57:25.420Z,98339.47
2022-12-08T20:03:27.432Z,98350.50
2022-12-08T20:09:33.012Z,98355.13
2022-12-08T20:15:34.971Z,98356.75
2022-12-08T20:21:36.929Z,98345.63
2022-12-08T20:27:38.858Z,98348.13
2022-12-08T20:33:40.773Z,98357.59
2022-12-08T20:39:42.673Z,98355.31
2022-12-08T20:45:44.814Z,98366.75
2022-12-08T20:51:46.944Z,98373.22
2022-12-08T20:57:48.864Z,98375.97
2022-12-08T21:03:51.919Z,98380.66
2022-12-08T21:09:54.781Z,98380.78
2022-12-08T21:15:57.211Z,98371.22
2022-12-08T21:21:59.206Z,98376.06
2022-12-08T21:28:01.285Z,98380.88
2022-12-08T21:34:13.128Z,98371.13
2022-12-08T21:40:15.338Z,98371.34
2022-12-08T21:46:27.358Z,98376.94
2022-12-08T21:52:29.443Z,98390.16
2022-12-08T21:58:32.718Z,98382.88
2022-12-08T22:04:35.361Z,98388.31
2022-12-08T22:10:38.405Z,98380.16
2022-12-08T22:16:40.416Z,98376.69
2022-12-08T22:22:42.820Z,98384.91
2022-12-08T22:28:45.226Z,98376.31
2022-12-08T22:34:47.390Z,98375.34
2022-12-08T22:40:49.313Z,98372.22
2022-12-08T22:46:51.276Z,98370.19
2022-12-08T22:52:56.290Z,98366.72
2022-12-08T22:58:58.530Z,98361.19
2022-12-08T23:05:00.620Z,98372.28
2022-12-08T23:11:02.941Z,98374.41
2022-12-08T23:17:04.984Z,98366.97
2022-12-08T23:23:07.043Z,98357.94
2022-12-08T23:29:09.104Z,98352.31
2022-12-08T23:35:11.159Z,98364.13
2022-12-08T23:41:16.057Z,98368.59
2022-12-08T23:47:18.491Z,98358.72
2022-12-08T23:53:20.786Z,98354.56
2022-12-08T23:59:22.967Z,98357.81
